createdAt,value
2023-10-18T00:01:33.764Z,17.70
2023-10-18T00:06:33.538Z,17.60
2023-10-18T00:11:33.479Z,19.40
2023-10-18T00:16:33.404Z,17.20
2023-10-18T00:21:33.339Z,17.40
2023-10-18T00:26:33.278Z,17.80
2023-10-18T00:31:33.342Z,18.20
2023-10-18T00:36:33.158Z,18.40
2023-10-18T00:41:33.144Z,18.60
2023-10-18T00:46:33.058Z,18.90
2023-10-18T00:51:32.972Z,17.20
2023-10-18T00:56:32.893Z,18.70
2023-10-18T01:01:32.915Z,18.50
2023-10-18T01:06:32.846Z,18.90
2023-10-18T01:11:32.744Z,21.30
2023-10-18T01:16:33.046Z,18.30
2023-10-18T01:21:32.569Z,19.40
2023-10-18T01:26:32.523Z,19.30
2023-10-18T01:31:32.547Z,19.60
2023-10-18T01:36:32.376Z,21.20
2023-10-18T01:41:32.314Z,21.10
2023-10-18T01:46:32.301Z,20.80
2023-10-18T01:51:32.181Z,22.10
2023-10-18T01:56:32.129Z,19.90
2023-10-18T02:01:32.092Z,21.00
2023-10-18T02:06:32.013Z,18.90
2023-10-18T02:11:31.932Z,19.80
2023-10-18T02:16:31.893Z,18.00
2023-10-18T02:21:31.834Z,18.70
2023-10-18T02:26:32.648Z,20.60
2023-10-18T02:31:31.879Z,21.70
2023-10-18T02:36:31.695Z,20.40
2023-10-18T02:41:31.544Z,18.90
2023-10-18T02:46:31.545Z,19.10
2023-10-18T02:51:31.432Z,19.90
2023-10-18T02:56:31.344Z,19.30
2023-10-18T03:01:31.358Z,19.30
2023-10-18T03:06:31.213Z,20.90
2023-10-18T03:11:31.141Z,20.90
2023-10-18T03:16:31.135Z,19.60
2023-10-18T03:21:31.017Z,20.70
2023-10-18T03:26:31.441Z,20.30
2023-10-18T03:31:30.989Z,20.20
2023-10-18T03:36:30.826Z,20.70
2023-10-18T03:41:30.757Z,20.00
2023-10-18T03:46:30.818Z,21.20
2023-10-18T03:51:30.641Z,21.50
2023-10-18T03:56:30.581Z,20.50
2023-10-18T04:01:30.595Z,20.70
2023-10-18T04:06:30.496Z,22.30
2023-10-18T04:11:30.381Z,21.40
2023-10-18T04:16:30.315Z,19.30
2023-10-18T04:21:30.252Z,19.40
2023-10-18T04:26:30.301Z,21.00
2023-10-18T04:31:30.136Z,21.30
2023-10-18T04:36:31.187Z,23.30
2023-10-18T04:41:30.019Z,21.50
2023-10-18T04:46:30.119Z,24.10
2023-10-18T04:51:29.859Z,21.60
2023-10-18T04:56:29.793Z,21.50
2023-10-18T05:01:29.779Z,21.90
2023-10-18T05:06:29.660Z,23.30
2023-10-18T05:11:29.587Z,22.40
2023-10-18T05:16:29.701Z,20.90
2023-10-18T05:21:29.476Z,23.80
2023-10-18T05:26:29.409Z,24.60
2023-10-18T05:31:29.363Z,22.50
2023-10-18T05:36:29.282Z,23.00
2023-10-18T05:41:29.231Z,23.30
2023-10-18T05:46:29.330Z,23.20
2023-10-18T05:56:29.034Z,20.30
2023-10-18T06:01:29.102Z,22.30
2023-10-18T06:06:28.899Z,19.60
2023-10-18T06:11:28.831Z,20.90
2023-10-18T06:16:28.876Z,20.20
2023-10-18T06:21:28.736Z,19.90
2023-10-18T06:26:28.644Z,20.80
2023-10-18T06:31:28.647Z,17.40
2023-10-18T06:36:28.516Z,16.60
2023-10-18T06:41:28.432Z,18.40
2023-10-18T06:46:29.678Z,15.40
2023-10-18T06:51:28.371Z,17.70
2023-10-18T06:56:28.235Z,16.60
2023-10-18T07:01:28.227Z,14.50
2023-10-18T07:06:28.104Z,14.20
2023-10-18T07:11:38.235Z,15.40
2023-10-18T07:16:29.057Z,14.30
2023-10-18T07:21:27.907Z,14.40
2023-10-18T07:26:27.852Z,14.30
2023-10-18T07:31:27.901Z,14.20
2023-10-18T07:36:27.727Z,15.40
2023-10-18T07:41:28.122Z,12.70
2023-10-18T07:46:27.617Z,13.70
2023-10-18T07:51:28.254Z,13.70
2023-10-18T07:56:27.496Z,14.20
2023-10-18T08:01:27.426Z,13.50
2023-10-18T08:06:27.415Z,10.10
2023-10-18T08:11:27.247Z,11.30
2023-10-18T08:16:27.241Z,12.10
2023-10-18T08:21:27.459Z,10.20
2023-10-18T08:26:27.053Z,12.20
2023-10-18T08:31:27.024Z,12.10
2023-10-18T08:36:28.629Z,11.00
2023-10-18T08:41:26.859Z,11.60
2023-10-18T08:46:26.858Z,8.70
2023-10-18T08:51:26.720Z,9.90
2023-10-18T08:56:26.667Z,11.20
2023-10-18T09:01:26.687Z,10.70
2023-10-18T09:06:26.556Z,10.40
2023-10-18T09:11:26.461Z,9.00
2023-10-18T09:16:26.474Z,10.10
2023-10-18T09:21:26.352Z,9.40
2023-10-18T09:26:26.276Z,9.00
2023-10-18T09:31:26.273Z,8.90
2023-10-18T09:36:26.183Z,9.90
2023-10-18T09:41:26.072Z,10.10
2023-10-18T09:46:26.157Z,11.10
2023-10-18T09:51:25.965Z,10.20
2023-10-18T09:56:26.203Z,10.30
2023-10-18T10:01:25.931Z,10.30
2023-10-18T10:06:25.755Z,12.00
2023-10-18T10:11:25.714Z,10.90
2023-10-18T10:16:26.143Z,11.10
2023-10-18T10:21:25.569Z,11.30
2023-10-18T10:26:32.788Z,13.00
2023-10-18T10:31:26.469Z,12.10
2023-10-18T10:36:25.422Z,11.70
2023-10-18T10:41:25.306Z,11.10
2023-10-18T10:46:25.325Z,11.60
2023-10-18T10:51:25.174Z,11.80
2023-10-18T10:56:25.122Z,12.40
2023-10-18T11:01:25.106Z,10.80
2023-10-18T11:06:24.991Z,12.90
2023-10-18T11:11:24.939Z,10.50
2023-10-18T11:16:24.944Z,10.50
2023-10-18T11:21:24.780Z,10.50
2023-10-18T11:26:24.728Z,11.20
2023-10-18T11:31:24.830Z,11.10
2023-10-18T11:36:24.578Z,10.60
2023-10-18T11:41:24.514Z,10.80
2023-10-18T11:46:24.568Z,10.90
2023-10-18T11:51:24.412Z,13.50
2023-10-18T11:56:24.333Z,10.70
2023-10-18T12:01:24.307Z,11.10
2023-10-18T12:06:24.181Z,10.80
2023-10-18T12:11:24.114Z,10.50
2023-10-18T12:16:24.225Z,9.80
2023-10-18T12:21:23.977Z,10.30
2023-10-18T12:26:23.918Z,10.10
2023-10-18T12:31:23.916Z,11.80
2023-10-18T12:36:23.821Z,9.70
2023-10-18T12:41:23.717Z,9.90
2023-10-18T12:46:23.852Z,10.00
2023-10-18T12:51:24.332Z,10.10
2023-10-18T12:56:23.570Z,9.60
2023-10-18T13:01:23.473Z,11.70
2023-10-18T13:06:23.392Z,9.60
2023-10-18T13:11:23.491Z,8.60
2023-10-18T13:16:23.312Z,9.50
2023-10-18T13:21:23.201Z,9.30
2023-10-18T13:26:23.179Z,9.00
2023-10-18T13:31:23.088Z,9.20
2023-10-18T13:36:23.032Z,9.10
2023-10-18T13:41:22.959Z,8.50
2023-10-18T13:46:22.870Z,9.50
2023-10-18T13:51:23.160Z,10.20
2023-10-18T13:56:22.881Z,8.80
2023-10-18T14:01:24.456Z,8.60
2023-10-18T14:06:29.966Z,10.10
2023-10-18T14:11:24.351Z,10.10
2023-10-18T14:16:22.487Z,11.20
2023-10-18T14:21:22.438Z,12.00
2023-10-18T14:26:22.350Z,9.30
2023-10-18T14:31:22.302Z,10.90
2023-10-18T14:36:23.415Z,9.90
2023-10-18T14:41:31.659Z,10.80
2023-10-18T14:46:23.103Z,13.70
2023-10-18T14:51:22.012Z,10.10
2023-10-18T14:56:21.985Z,10.90
2023-10-18T15:01:21.936Z,10.30
2023-10-18T15:06:21.806Z,12.20
2023-10-18T15:11:21.754Z,12.30
2023-10-18T15:16:21.694Z,11.00
2023-10-18T15:21:21.658Z,12.60
2023-10-18T15:26:21.651Z,12.10
2023-10-18T15:31:21.612Z,10.80
2023-10-18T15:36:21.418Z,13.30
2023-10-18T15:41:21.998Z,11.10
2023-10-18T15:46:21.383Z,13.20
2023-10-18T15:51:21.231Z,11.60
2023-10-18T15:56:21.204Z,11.90
2023-10-18T16:01:21.155Z,12.20
2023-10-18T16:06:21.112Z,13.80
2023-10-18T16:11:20.970Z,13.80
2023-10-18T16:16:20.982Z,13.70
2023-10-18T16:21:20.836Z,13.30
2023-10-18T16:26:20.798Z,13.60
2023-10-18T16:31:21.270Z,13.70
2023-10-18T16:36:20.604Z,13.30
2023-10-18T16:41:20.548Z,16.50
2023-10-18T16:46:20.534Z,13.00
2023-10-18T16:51:20.409Z,14.50
2023-10-18T16:56:20.373Z,16.10
2023-10-18T17:01:20.306Z,13.00
2023-10-18T17:06:20.269Z,15.80
2023-10-18T17:11:20.250Z,14.00
2023-10-18T17:16:20.151Z,15.70
2023-10-18T17:21:20.839Z,13.40
2023-10-18T17:26:20.024Z,16.60
2023-10-18T17:31:19.950Z,15.60
2023-10-18T17:36:20.542Z,16.90
2023-10-18T17:41:19.763Z,17.10
2023-10-18T17:46:19.720Z,15.70
2023-10-18T17:51:19.626Z,17.80
2023-10-18T17:56:19.823Z,14.70
2023-10-18T18:01:19.514Z,16.50
2023-10-18T18:06:19.481Z,16.70
2023-10-18T18:11:19.410Z,15.80
2023-10-18T18:16:19.338Z,16.70
2023-10-18T18:21:19.262Z,15.80
2023-10-18T18:26:20.467Z,17.30
2023-10-18T18:31:19.169Z,15.30
2023-10-18T18:36:19.042Z,15.50
2023-10-18T18:41:19.009Z,16.00
2023-10-18T18:46:31.328Z,15.90
2023-10-18T18:51:19.861Z,16.00
2023-10-18T18:56:21.825Z,15.10
2023-10-18T19:01:18.729Z,14.30
2023-10-18T19:06:18.667Z,15.10
2023-10-18T19:11:18.635Z,13.80
2023-10-18T19:16:18.574Z,12.60
2023-10-18T19:21:18.452Z,13.40
2023-10-18T19:26:18.439Z,13.80
2023-10-18T19:31:18.390Z,15.00
2023-10-18T19:36:18.277Z,14.20
2023-10-18T19:41:18.611Z,14.20
2023-10-18T19:46:18.203Z,12.80
2023-10-18T19:51:18.102Z,13.30
2023-10-18T19:56:18.074Z,12.40
2023-10-18T20:01:17.980Z,12.80
2023-10-18T20:06:19.423Z,12.10
2023-10-18T20:11:17.879Z,13.40
2023-10-18T20:16:17.811Z,11.80
2023-10-18T20:21:17.788Z,14.60
2023-10-18T20:26:17.646Z,12.80
2023-10-18T20:31:17.556Z,10.60
2023-10-18T20:36:17.497Z,13.00
2023-10-18T20:41:17.444Z,13.90
2023-10-18T20:46:17.430Z,11.30
2023-10-18T20:51:17.509Z,15.10
2023-10-18T20:56:17.237Z,11.50
2023-10-18T21:01:17.197Z,12.50
2023-10-18T21:06:17.125Z,12.80
2023-10-18T21:11:17.095Z,11.90
2023-10-18T21:16:17.111Z,12.10
2023-10-18T21:21:17.188Z,12.50
2023-10-18T21:26:16.866Z,12.70
2023-10-18T21:31:16.873Z,11.20
2023-10-18T21:36:16.757Z,12.80
2023-10-18T21:41:16.726Z,11.10
2023-10-18T21:46:16.672Z,12.10
2023-10-18T21:51:16.567Z,10.60
2023-10-18T21:56:16.715Z,11.00
2023-10-18T22:01:16.462Z,10.80
2023-10-18T22:06:16.342Z,10.70
2023-10-18T22:11:16.263Z,11.30
2023-10-18T22:16:16.366Z,10.90
2023-10-18T22:21:16.140Z,11.30
2023-10-18T22:26:16.458Z,11.20
2023-10-18T22:31:16.059Z,9.70
2023-10-18T22:36:15.986Z,9.80
2023-10-18T22:41:15.893Z,10.50
2023-10-18T22:46:15.998Z,8.90
2023-10-18T22:51:15.749Z,10.50
2023-10-18T22:56:15.690Z,9.30
2023-10-18T23:01:15.688Z,10.70
2023-10-18T23:06:15.551Z,10.10
2023-10-18T23:11:15.522Z,10.20
2023-10-18T23:16:15.469Z,9.00
2023-10-18T23:21:15.520Z,8.70
2023-10-18T23:26:15.307Z,9.70
2023-10-18T23:31:15.349Z,11.60
2023-10-18T23:36:15.214Z,11.30
2023-10-18T23:41:15.128Z,10.20
2023-10-18T23:46:15.123Z,10.70
2023-10-18T23:51:14.997Z,10.40
2023-10-18T23:56:14.928Z,10.00
